< Typhoon 197226 1972 Season Typhoon 197228 >
Typhoon 197227 (PAMELA)
General InformationTrack Information on Google Maps || Disaster Info.ResourceGoogle EarthGE AnimationAtom FeedGeoJSON
Detalied Best Track (Time Zone = UTC)
Year Month Day Hour Lat. Long. Pressure (hPa) Wind (kt) Class Image Chart
1972 11 2 00 17.6 143.6 1012 0 2 -- Chart
1972 11 2 06 17.2 142.1 1008 0 2 -- Chart
1972 11 2 12 16.7 140.8 1008 0 2 -- Chart
1972 11 2 18 15.9 139.2 1008 0 2 -- Chart
1972 11 3 00 15.2 138.0 1008 0 2 -- Chart
1972 11 3 06 14.3 136.8 1004 0 2 -- Chart
1972 11 3 12 13.5 135.2 1004 0 2 -- Chart
1972 11 3 18 13.0 133.4 1004 0 2 -- Chart
1972 11 4 00 12.8 131.5 1004 0 2 -- Chart
1972 11 4 06 12.8 129.9 1002 0 9 -- Chart
1972 11 4 12 12.7 128.2 1002 0 9 -- Chart
1972 11 4 18 12.6 126.3 1000 0 9 -- Chart
1972 11 5 00 12.4 124.6 1000 0 9 -- Chart
1972 11 5 06 12.4 122.8 1000 0 9 -- Chart
1972 11 5 12 12.5 121.5 994 0 9 -- Chart
1972 11 5 18 12.9 120.0 985 0 9 -- Chart
1972 11 6 00 13.2 118.1 985 0 9 -- Chart
1972 11 6 06 13.5 116.6 980 0 9 -- Chart
1972 11 6 12 14.0 115.7 970 0 9 -- Chart
1972 11 6 18 14.5 114.7 965 0 9 -- Chart
1972 11 7 00 15.2 113.5 950 0 9 -- Chart
1972 11 7 06 15.9 112.6 945 0 9 -- Chart
1972 11 7 12 16.6 111.7 940 0 9 -- Chart
1972 11 7 18 17.5 110.7 940 0 9 -- Chart
1972 11 8 00 18.8 110.8 965 0 9 -- Chart
1972 11 8 06 20.2 111.3 970 0 9 -- Chart
1972 11 8 12 21.5 111.5 970 0 9 -- Chart
1972 11 8 18 24.0 112.0 998 0 9 -- Chart
1972 11 9 00 25.0 115.0 1006 0 2 -- Chart
1972 11 9 06 25.5 116.5 1008 0 2 -- Chart
1972 11 9 12 26.0 118.0 1012 0 2 -- Chart
Japan Meteorological Agency Best Track Data | Correction Date : 1989-06-01
< Typhoon 197226 1972 Season Typhoon 197228 >

Help